Time;durP1;ratioP1;P1;durP2;ratioP2;P2;SDS_P1;SDS_P2;PMS_P1;PMS_P2;Temp;Humidity;BMP_temperature;BMP_pressure;BME280_temperature;BME280_humidity;BME280_pressure;Samples;Min_cycle;Max_cycle;Signal;HPM_P1;HPM_P2
2022/09/12 00:01:54;;;;;;;4.20;2.05;;;;;;;;;;5066416;28;20607;-70
2022/09/12 00:04:20;;;;;;;3.67;2.17;;;;;;;;;;5065142;28;20591;-70
2022/09/12 00:06:47;;;;;;;4.38;2.00;;;;;;;;;;5063094;28;20059;-70
2022/09/12 00:09:14;;;;;;;4.72;2.00;;;;;;;;;;5065800;28;20064;-70
2022/09/12 00:11:41;;;;;;;3.60;2.35;;;;;;;;;;5056875;28;20045;-70
2022/09/12 00:14:08;;;;;;;4.45;2.40;;;;;;;;;;5064381;28;20126;-70
2022/09/12 00:16:35;;;;;;;5.00;2.65;;;;;;;;;;5061449;28;20545;-71
2022/09/12 00:19:02;;;;;;;8.48;2.28;;;;;;;;;;5062884;28;20040;-70
2022/09/12 00:21:28;;;;;;;4.35;2.53;;;;;;;;;;5059021;28;20094;-70
2022/09/12 00:23:54;;;;;;;3.50;2.13;;;;;;;;;;5063275;28;20072;-70
2022/09/12 00:26:21;;;;;;;4.22;2.17;;;;;;;;;;5061476;28;20036;-70
2022/09/12 00:28:47;;;;;;;4.82;2.88;;;;;;;;;;5068745;28;20063;-70
2022/09/12 00:31:15;;;;;;;6.97;3.00;;;;;;;;;;5073500;28;20578;-70
2022/09/12 00:33:42;;;;;;;5.97;3.13;;;;;;;;;;5065750;28;20087;-70
2022/09/12 00:36:09;;;;;;;5.30;3.10;;;;;;;;;;5066148;28;20094;-70
2022/09/12 00:38:37;;;;;;;4.70;3.63;;;;;;;;;;5069735;28;20151;-70
2022/09/12 00:41:07;;;;;;;6.35;3.05;;;;;;;;;;5068572;28;20070;-71
2022/09/12 00:43:39;;;;;;;4.50;2.80;;;;;;;;;;5057736;28;20123;-70
2022/09/12 00:46:12;;;;;;;7.03;2.78;;;;;;;;;;5062020;28;20049;-70
2022/09/12 00:48:41;;;;;;;4.07;2.97;;;;;;;;;;5068819;28;20060;-71
2022/09/12 00:51:08;;;;;;;5.05;3.35;;;;;;;;;;5071634;28;20037;-70
2022/09/12 00:53:34;;;;;;;7.00;3.25;;;;;;;;;;5043073;28;20167;-70
2022/09/12 00:56:00;;;;;;;4.32;3.00;;;;;;;;;;5063415;28;20068;-70
2022/09/12 00:58:31;;;;;;;6.07;3.22;;;;;;;;;;5069345;28;20051;-71
2022/09/12 01:00:58;;;;;;;6.10;3.30;;;;;;;;;;5070306;28;20052;-71
2022/09/12 01:03:25;;;;;;;5.03;3.55;;;;;;;;;;5069676;28;22306;-70
2022/09/12 01:05:55;;;;;;;6.45;3.38;;;;;;;;;;5069976;28;20103;-70
2022/09/12 01:08:22;;;;;;;8.38;3.83;;;;;;;;;;5066254;28;20071;-71
2022/09/12 01:10:48;;;;;;;6.75;4.28;;;;;;;;;;5065393;28;20036;-70
2022/09/12 01:13:14;;;;;;;4.30;3.20;;;;;;;;;;5062856;28;20070;-71
2022/09/12 01:15:41;;;;;;;5.25;3.17;;;;;;;;;;5063561;28;20071;-71
2022/09/12 01:18:13;;;;;;;7.03;3.20;;;;;;;;;;5061226;28;20087;-71
2022/09/12 01:20:39;;;;;;;7.22;4.00;;;;;;;;;;5063063;28;20053;-71
2022/09/12 01:23:08;;;;;;;5.43;3.75;;;;;;;;;;5061895;28;20045;-70
2022/09/12 01:25:43;;;;;;;4.75;3.92;;;;;;;;;;5062770;28;20295;-70
2022/09/12 01:28:24;;;;;;;5.53;4.28;;;;;;;;;;5063081;28;20040;-71
2022/09/12 01:30:55;;;;;;;6.43;4.95;;;;;;;;;;5072324;28;20044;-70
2022/09/12 01:33:32;;;;;;;8.17;4.00;;;;;;;;;;5069803;28;20051;-72
2022/09/12 01:36:01;;;;;;;6.32;3.92;;;;;;;;;;5062906;28;20041;-70
2022/09/12 01:38:37;;;;;;;6.13;4.40;;;;;;;;;;5059017;28;20031;-69
2022/09/12 01:41:12;;;;;;;7.55;4.40;;;;;;;;;;5069537;28;20040;-70
2022/09/12 01:43:49;;;;;;;9.65;4.75;;;;;;;;;;5065939;28;20040;-70
2022/09/12 01:46:17;;;;;;;5.47;3.85;;;;;;;;;;5066406;28;20620;-70
2022/09/12 01:48:50;;;;;;;7.55;3.70;;;;;;;;;;5070390;28;20151;-70
2022/09/12 01:51:19;;;;;;;5.53;4.25;;;;;;;;;;5066964;28;20055;-70
2022/09/12 01:53:47;;;;;;;9.05;4.28;;;;;;;;;;5067195;28;20037;-70
2022/09/12 01:56:14;;;;;;;5.60;3.60;;;;;;;;;;5064883;28;20045;-71
2022/09/12 01:58:45;;;;;;;5.82;3.95;;;;;;;;;;5062675;28;20111;-70
2022/09/12 02:01:15;;;;;;;8.32;5.30;;;;;;;;;;5063672;28;20044;-70
2022/09/12 02:03:43;;;;;;;6.93;4.03;;;;;;;;;;5047078;28;20051;-70
2022/09/12 02:06:15;;;;;;;8.15;4.10;;;;;;;;;;5068808;28;20036;-70
2022/09/12 02:08:44;;;;;;;6.13;3.95;;;;;;;;;;5073401;28;20052;-70
2022/09/12 02:11:11;;;;;;;8.93;4.57;;;;;;;;;;5066277;28;20037;-70
2022/09/12 02:13:57;;;;;;;9.25;4.80;;;;;;;;;;5071541;28;20613;-70
2022/09/12 02:16:27;;;;;;;7.28;4.25;;;;;;;;;;5065714;28;20042;-70
2022/09/12 02:18:54;;;;;;;6.28;4.00;;;;;;;;;;5071886;28;20067;-70
2022/09/12 02:21:22;;;;;;;8.52;4.35;;;;;;;;;;5074565;28;20052;-70
2022/09/12 02:23:53;;;;;;;10.57;4.90;;;;;;;;;;5071901;28;20049;-70
2022/09/12 02:26:40;;;;;;;6.55;4.20;;;;;;;;;;5073583;28;20040;-70
2022/09/12 02:29:06;;;;;;;7.78;4.53;;;;;;;;;;5065110;28;20794;-71
2022/09/12 02:31:39;;;;;;;8.10;4.55;;;;;;;;;;5073923;28;20254;-70
2022/09/12 02:34:06;;;;;;;7.95;4.28;;;;;;;;;;5071551;28;20123;-70
2022/09/12 02:36:38;;;;;;;7.78;5.40;;;;;;;;;;5070346;28;20132;-70
2022/09/12 02:39:04;;;;;;;;;;;;;;;;;;5072206;28;20106;-69
2022/09/12 02:41:30;;;;;;;6.55;4.82;;;;;;;;;;5066978;28;19951;-69
2022/09/12 02:43:56;;;;;;;8.43;5.05;;;;;;;;;;5066837;28;20051;-71
2022/09/12 02:46:43;;;;;;;7.78;4.28;;;;;;;;;;5071802;28;20094;-70
2022/09/12 02:49:09;;;;;;;6.03;4.30;;;;;;;;;;5064802;28;20052;-70
2022/09/12 02:51:36;;;;;;;9.65;5.07;;;;;;;;;;5070247;28;20044;-70
2022/09/12 02:54:02;;;;;;;7.15;4.47;;;;;;;;;;5048446;28;20514;-70
2022/09/12 02:56:30;;;;;;;9.15;4.75;;;;;;;;;;5069621;28;20669;-70
2022/09/12 02:58:59;;;;;;;9.63;5.50;;;;;;;;;;5069036;28;20119;-70
2022/09/12 03:01:25;;;;;;;8.02;5.72;;;;;;;;;;5069645;28;20529;-71
2022/09/12 03:04:03;;;;;;;7.35;5.50;;;;;;;;;;5072265;28;20040;-70
2022/09/12 03:06:35;;;;;;;7.78;4.70;;;;;;;;;;5068573;28;20041;-70
2022/09/12 03:09:02;;;;;;;5.28;4.15;;;;;;;;;;5072374;28;20048;-70
2022/09/12 03:11:40;;;;;;;7.75;4.88;;;;;;;;;;5067813;28;20041;-70
2022/09/12 03:14:06;;;;;;;7.32;5.05;;;;;;;;;;5067783;28;20044;-70
2022/09/12 03:16:49;;;;;;;7.20;4.47;;;;;;;;;;5069555;28;20442;-70
2022/09/12 03:19:18;;;;;;;7.07;4.78;;;;;;;;;;5070647;28;20087;-70
2022/09/12 03:21:49;;;;;;;7.07;4.60;;;;;;;;;;5070968;28;20060;-71
2022/09/12 03:24:20;;;;;;;5.88;4.15;;;;;;;;;;5073304;28;20072;-70
2022/09/12 03:26:58;;;;;;;5.38;4.03;;;;;;;;;;5064291;28;20522;-70
2022/09/12 03:29:25;;;;;;;9.05;5.97;;;;;;;;;;5071471;28;20079;-70
2022/09/12 03:31:53;;;;;;;8.60;4.88;;;;;;;;;;5071640;28;20045;-70
2022/09/12 03:34:20;;;;;;;6.97;4.95;;;;;;;;;;5068183;28;20051;-70
2022/09/12 03:36:46;;;;;;;6.43;4.78;;;;;;;;;;5069336;28;20044;-70
2022/09/12 03:39:12;;;;;;;6.07;4.60;;;;;;;;;;5068978;28;20052;-69
2022/09/12 03:41:39;;;;;;;7.38;5.00;;;;;;;;;;5069120;28;20043;-70
2022/09/12 03:44:05;;;;;;;6.55;4.32;;;;;;;;;;5064638;28;20040;-70
2022/09/12 03:46:31;;;;;;;10.25;4.65;;;;;;;;;;5070478;28;20037;-70
2022/09/12 03:48:57;;;;;;;6.22;4.30;;;;;;;;;;5072781;28;20053;-76
2022/09/12 03:51:23;;;;;;;11.40;4.40;;;;;;;;;;5070772;28;20040;-70
2022/09/12 03:53:49;;;;;;;8.60;4.88;;;;;;;;;;5070018;28;20032;-70
2022/09/12 03:56:16;;;;;;;6.47;4.18;;;;;;;;;;5066719;28;20056;-71
2022/09/12 03:58:43;;;;;;;9.73;4.90;;;;;;;;;;5070556;28;20044;-71
2022/09/12 04:01:11;;;;;;;8.02;5.40;;;;;;;;;;5066618;28;20647;-71
2022/09/12 04:03:41;;;;;;;7.60;4.95;;;;;;;;;;5070208;28;20051;-71
2022/09/12 04:06:08;;;;;;;7.82;4.78;;;;;;;;;;5067380;28;20049;-70
2022/09/12 04:08:35;;;;;;;7.43;4.13;;;;;;;;;;5067531;28;20044;-70
2022/09/12 04:11:05;;;;;;;7.85;5.13;;;;;;;;;;5068051;28;20059;-71
2022/09/12 04:13:31;;;;;;;9.70;5.55;;;;;;;;;;5069568;28;20041;-70
2022/09/12 04:15:58;;;;;;;7.20;4.70;;;;;;;;;;5063730;28;20090;-71
2022/09/12 04:18:24;;;;;;;10.23;6.10;;;;;;;;;;5071025;28;20076;-70
2022/09/12 04:20:50;;;;;;;8.10;5.00;;;;;;;;;;5063397;28;20598;-71
2022/09/12 04:23:16;;;;;;;8.10;4.50;;;;;;;;;;5028880;28;20111;-70
2022/09/12 04:25:42;;;;;;;10.00;5.15;;;;;;;;;;5060012;28;20030;-75
2022/09/12 04:28:08;;;;;;;6.97;4.40;;;;;;;;;;5027133;28;20266;-70
2022/09/12 04:30:35;;;;;;;7.18;5.15;;;;;;;;;;5027928;28;20072;-70
2022/09/12 04:33:01;;;;;;;7.05;4.65;;;;;;;;;;5023276;28;20068;-70
2022/09/12 04:35:27;;;;;;;6.03;4.47;;;;;;;;;;5061216;28;20038;-71
2022/09/12 04:37:53;;;;;;;6.85;4.47;;;;;;;;;;5064287;28;20049;-70
2022/09/12 04:40:20;;;;;;;7.97;4.13;;;;;;;;;;5054469;28;20072;-70
2022/09/12 04:42:46;;;;;;;8.88;5.72;;;;;;;;;;5031423;28;20042;-71
2022/09/12 04:45:12;;;;;;;6.00;4.45;;;;;;;;;;5030243;28;20042;-70
2022/09/12 04:47:38;;;;;;;7.18;5.07;;;;;;;;;;5066369;28;20884;-71
2022/09/12 04:50:04;;;;;;;6.70;4.57;;;;;;;;;;5062057;28;20095;-70
2022/09/12 04:52:31;;;;;;;9.40;5.47;;;;;;;;;;5061777;28;20097;-70
2022/09/12 04:55:00;;;;;;;7.15;4.82;;;;;;;;;;5061298;28;20045;-70
2022/09/12 04:57:26;;;;;;;6.55;4.00;;;;;;;;;;5063086;28;20447;-70
2022/09/12 05:00:38;;;;;;;10.68;6.68;;;;;;;;;;5063690;28;20041;-79
2022/09/12 05:03:04;;;;;;;8.20;4.72;;;;;;;;;;5064697;28;20037;-71
2022/09/12 05:05:30;;;;;;;6.30;4.35;;;;;;;;;;5062495;28;20083;-70
2022/09/12 05:07:56;;;;;;;7.03;5.32;;;;;;;;;;5062959;28;20052;-71
2022/09/12 05:10:22;;;;;;;8.07;4.35;;;;;;;;;;5059839;28;20045;-71
2022/09/12 05:12:48;;;;;;;7.45;5.03;;;;;;;;;;5033089;28;20583;-72
2022/09/12 05:15:14;;;;;;;9.23;5.82;;;;;;;;;;5065337;28;20136;-71
2022/09/12 05:17:41;;;;;;;8.10;4.97;;;;;;;;;;5032707;28;20056;-70
2022/09/12 05:20:08;;;;;;;7.07;5.43;;;;;;;;;;5071774;28;20144;-71
2022/09/12 05:22:34;;;;;;;6.75;5.10;;;;;;;;;;5063129;28;20060;-71
2022/09/12 05:25:00;;;;;;;7.47;4.32;;;;;;;;;;5053400;28;20041;-71
2022/09/12 05:27:26;;;;;;;9.60;6.15;;;;;;;;;;5062576;28;20041;-71
2022/09/12 05:29:52;;;;;;;5.97;4.88;;;;;;;;;;5052962;28;20038;-71
2022/09/12 05:32:19;;;;;;;8.13;4.95;;;;;;;;;;5062819;28;20044;-71
2022/09/12 05:34:46;;;;;;;7.25;5.28;;;;;;;;;;5054973;28;20033;-71
2022/09/12 05:37:12;;;;;;;8.43;5.88;;;;;;;;;;5063159;28;20050;-71
2022/09/12 05:39:38;;;;;;;10.82;5.50;;;;;;;;;;5062063;28;20034;-70
2022/09/12 05:42:13;;;;;;;7.88;4.47;;;;;;;;;;5062923;28;20044;-77
2022/09/12 05:44:39;;;;;;;8.43;4.45;;;;;;;;;;5049611;28;20042;-73
2022/09/12 05:47:05;;;;;;;5.75;4.00;;;;;;;;;;5057225;28;20346;-70
2022/09/12 05:49:31;;;;;;;8.55;4.65;;;;;;;;;;5058381;28;20702;-70
2022/09/12 05:51:58;;;;;;;8.05;4.03;;;;;;;;;;5050321;28;20056;-71
2022/09/12 05:54:24;;;;;;;12.45;5.20;;;;;;;;;;5049913;28;20069;-72
2022/09/12 05:56:50;;;;;;;8.75;4.28;;;;;;;;;;5061278;28;20889;-70
2022/09/12 05:59:17;;;;;;;7.05;4.35;;;;;;;;;;5048511;28;20041;-71
2022/09/12 06:01:44;;;;;;;9.40;5.32;;;;;;;;;;5059530;28;20048;-71
2022/09/12 06:04:11;;;;;;;6.78;4.57;;;;;;;;;;5053306;28;20171;-71
2022/09/12 06:06:41;;;;;;;6.85;4.13;;;;;;;;;;5050633;28;20056;-71
2022/09/12 06:09:07;;;;;;;13.45;4.82;;;;;;;;;;5062199;28;20072;-72
2022/09/12 06:11:36;;;;;;;8.07;4.70;;;;;;;;;;5066370;28;20147;-71
2022/09/12 06:14:02;;;;;;;11.75;5.57;;;;;;;;;;5050626;28;20041;-71
2022/09/12 06:16:29;;;;;;;5.78;4.60;;;;;;;;;;5049326;28;20205;-71
2022/09/12 06:19:00;;;;;;;7.47;4.90;;;;;;;;;;5048729;28;20045;-71
2022/09/12 06:21:27;;;;;;;8.02;4.97;;;;;;;;;;5067001;28;20508;-71
2022/09/12 06:23:57;;;;;;;8.68;4.15;;;;;;;;;;5051520;28;20594;-71
2022/09/12 06:26:24;;;;;;;6.55;3.88;;;;;;;;;;5051144;28;20143;-71
2022/09/12 06:28:51;;;;;;;6.82;4.10;;;;;;;;;;5062844;28;20123;-72
2022/09/12 06:31:18;;;;;;;7.15;4.28;;;;;;;;;;5061044;28;20269;-71
2022/09/12 06:33:45;;;;;;;5.57;4.57;;;;;;;;;;5046818;28;20050;-71
2022/09/12 06:36:13;;;;;;;6.68;4.30;;;;;;;;;;5045921;28;20067;-72
2022/09/12 06:38:39;;;;;;;7.93;4.25;;;;;;;;;;5047326;28;20038;-72
2022/09/12 06:41:06;;;;;;;7.45;4.50;;;;;;;;;;5059653;28;20042;-71
2022/09/12 06:43:33;;;;;;;13.05;4.93;;;;;;;;;;5049880;28;20945;-71
2022/09/12 06:45:59;;;;;;;7.68;4.40;;;;;;;;;;5055146;28;20056;-71
2022/09/12 06:48:25;;;;;;;8.48;5.43;;;;;;;;;;5068258;28;20091;-71
2022/09/12 06:50:58;;;;;;;15.27;5.22;;;;;;;;;;5053387;28;20102;-71
2022/09/12 06:53:25;;;;;;;8.45;4.70;;;;;;;;;;5056782;28;20545;-71
2022/09/12 06:55:59;;;;;;;12.15;5.80;;;;;;;;;;5048673;28;20042;-71
2022/09/12 06:58:26;;;;;;;10.93;5.00;;;;;;;;;;5055185;28;20127;-71
2022/09/12 07:00:53;;;;;;;7.88;4.15;;;;;;;;;;5055320;28;21076;-71
2022/09/12 07:03:19;;;;;;;6.60;4.57;;;;;;;;;;5055885;28;20045;-71
2022/09/12 07:05:45;;;;;;;8.52;4.85;;;;;;;;;;5065674;28;20538;-71
2022/09/12 07:08:11;;;;;;;8.82;5.15;;;;;;;;;;5064624;28;20076;-71
2022/09/12 07:10:37;;;;;;;6.22;3.70;;;;;;;;;;5055856;28;20040;-71
2022/09/12 07:13:04;;;;;;;17.75;5.95;;;;;;;;;;5065324;28;20144;-71
2022/09/12 07:15:30;;;;;;;4.95;3.38;;;;;;;;;;5056641;28;20732;-71
2022/09/12 07:17:56;;;;;;;8.60;5.45;;;;;;;;;;5065092;28;20095;-71
2022/09/12 07:20:22;;;;;;;6.47;3.38;;;;;;;;;;5065896;28;21183;-71
2022/09/12 07:22:50;;;;;;;7.03;4.03;;;;;;;;;;5064841;28;20085;-71
2022/09/12 07:25:16;;;;;;;7.50;3.78;;;;;;;;;;5057331;28;20045;-71
2022/09/12 07:27:42;;;;;;;9.52;3.95;;;;;;;;;;5065821;28;20041;-71
2022/09/12 07:30:08;;;;;;;5.18;3.70;;;;;;;;;;5065523;28;21004;-71
2022/09/12 07:32:34;;;;;;;5.35;3.17;;;;;;;;;;5064519;28;20046;-71
2022/09/12 07:35:00;;;;;;;7.50;3.50;;;;;;;;;;5065241;28;20049;-71
2022/09/12 07:37:30;;;;;;;9.93;3.38;;;;;;;;;;5055104;28;20071;-71
2022/09/12 07:39:56;;;;;;;4.18;2.97;;;;;;;;;;5065361;28;20068;-71
2022/09/12 07:42:22;;;;;;;5.00;2.78;;;;;;;;;;5066235;28;20103;-71
2022/09/12 07:44:51;;;;;;;4.28;2.85;;;;;;;;;;5066839;28;20048;-71
2022/09/12 07:47:17;;;;;;;4.45;2.90;;;;;;;;;;5055054;28;20351;-71
2022/09/12 07:49:43;;;;;;;6.63;2.83;;;;;;;;;;5065005;28;20276;-71
2022/09/12 07:52:09;;;;;;;5.05;3.00;;;;;;;;;;5065582;28;20076;-72
2022/09/12 07:54:36;;;;;;;4.05;2.70;;;;;;;;;;5065968;28;20103;-71
2022/09/12 07:57:02;;;;;;;8.52;4.22;;;;;;;;;;5056369;28;20593;-71
2022/09/12 07:59:28;;;;;;;6.00;2.90;;;;;;;;;;5065298;28;20091;-71
2022/09/12 08:01:54;;;;;;;8.10;2.90;;;;;;;;;;5072350;28;20064;-71
2022/09/12 08:04:21;;;;;;;5.05;2.92;;;;;;;;;;5064650;28;20052;-71
2022/09/12 08:06:47;;;;;;;5.55;2.60;;;;;;;;;;5046661;28;20512;-71
2022/09/12 08:09:16;;;;;;;3.50;2.45;;;;;;;;;;5064167;28;20387;-71
2022/09/12 08:11:42;;;;;;;3.90;2.65;;;;;;;;;;5065053;28;20037;-72
2022/09/12 08:14:09;;;;;;;3.45;2.30;;;;;;;;;;5065017;28;20138;-71
2022/09/12 08:16:35;;;;;;;4.47;2.40;;;;;;;;;;5054919;28;20048;-72
2022/09/12 08:19:02;;;;;;;3.20;2.45;;;;;;;;;;5063753;28;21075;-71
2022/09/12 08:21:29;;;;;;;6.43;2.50;;;;;;;;;;5054952;28;20052;-71
2022/09/12 08:23:59;;;;;;;4.45;2.72;;;;;;;;;;5054243;28;20185;-71
2022/09/12 08:26:26;;;;;;;3.35;2.60;;;;;;;;;;5055792;28;20048;-71
2022/09/12 08:28:52;;;;;;;4.70;2.63;;;;;;;;;;5064734;28;20555;-71
2022/09/12 08:31:19;;;;;;;3.85;2.50;;;;;;;;;;5065318;28;20160;-72
2022/09/12 08:33:46;;;;;;;6.57;2.53;;;;;;;;;;5047480;28;20506;-71
2022/09/12 08:36:13;;;;;;;4.15;2.67;;;;;;;;;;5064617;28;20053;-71
2022/09/12 08:38:41;;;;;;;3.70;2.13;;;;;;;;;;5054997;28;20095;-71
2022/09/12 08:41:29;;;;;;;3.97;2.45;;;;;;;;;;5055366;28;20056;-71
2022/09/12 08:44:08;;;;;;;4.82;2.25;;;;;;;;;;5055556;28;20543;-72
2022/09/12 08:46:50;;;;;;;5.40;2.70;;;;;;;;;;5054676;28;20040;-71
2022/09/12 08:49:24;;;;;;;2.63;2.05;;;;;;;;;;5064017;28;20041;-72
2022/09/12 08:51:51;;;;;;;6.15;2.13;;;;;;;;;;5054306;28;20045;-70
2022/09/12 08:54:23;;;;;;;3.13;2.03;;;;;;;;;;5055648;28;20192;-71
2022/09/12 08:56:50;;;;;;;3.55;2.50;;;;;;;;;;5054709;28;20431;-71
2022/09/12 08:59:16;;;;;;;5.82;2.38;;;;;;;;;;5063771;28;20045;-71
2022/09/12 09:01:44;;;;;;;5.00;2.72;;;;;;;;;;5056793;28;20064;-71
2022/09/12 09:04:13;;;;;;;4.82;2.63;;;;;;;;;;5055105;28;20086;-71
2022/09/12 09:06:58;;;;;;;6.78;2.38;;;;;;;;;;5054938;28;20515;-70
2022/09/12 09:09:43;;;;;;;4.00;2.15;;;;;;;;;;5065139;28;19920;-71
2022/09/12 09:12:22;;;;;;;3.08;2.00;;;;;;;;;;5053605;28;20037;-71
2022/09/12 09:14:53;;;;;;;5.25;1.88;;;;;;;;;;5063550;28;20629;-71
2022/09/12 09:17:24;;;;;;;3.80;2.30;;;;;;;;;;5063584;28;20079;-71
2022/09/12 09:20:14;;;;;;;4.38;2.35;;;;;;;;;;5066588;28;20045;-72
2022/09/12 09:22:49;;;;;;;3.65;2.28;;;;;;;;;;5042846;28;20632;-71
2022/09/12 09:25:18;;;;;;;5.00;2.08;;;;;;;;;;5090105;28;20041;-72
2022/09/12 09:28:08;;;;;;;3.22;1.88;;;;;;;;;;5073193;28;20052;-72
2022/09/12 09:30:34;;;;;;;5.10;1.77;;;;;;;;;;5024455;28;20048;-71
2022/09/12 09:33:02;;;;;;;8.68;1.98;;;;;;;;;;5073971;28;20032;-72
2022/09/12 09:35:44;;;;;;;3.92;2.10;;;;;;;;;;5072287;28;20045;-73
2022/09/12 09:38:25;;;;;;;2.97;2.17;;;;;;;;;;5075185;28;20127;-71
2022/09/12 09:40:55;;;;;;;6.13;3.35;;;;;;;;;;5072675;28;20098;-71
2022/09/12 09:43:22;;;;;;;2.88;1.70;;;;;;;;;;5073827;28;20083;-71
2022/09/12 09:45:49;;;;;;;6.57;2.28;;;;;;;;;;5073494;28;20477;-72
2022/09/12 09:48:35;;;;;;;3.67;1.67;;;;;;;;;;5072166;28;20135;-71
2022/09/12 09:51:03;;;;;;;3.47;2.20;;;;;;;;;;5072388;28;20039;-72
2022/09/12 09:53:36;;;;;;;9.18;2.47;;;;;;;;;;5073844;28;20051;-71
2022/09/12 09:56:05;;;;;;;4.15;1.90;;;;;;;;;;5072993;28;20072;-72
2022/09/12 09:58:34;;;;;;;4.50;2.30;;;;;;;;;;5091068;28;20136;-72
2022/09/12 10:01:04;;;;;;;7.97;1.88;;;;;;;;;;5073390;28;20129;-71
2022/09/12 10:03:31;;;;;;;5.72;1.85;;;;;;;;;;5074771;28;20454;-72
2022/09/12 10:05:59;;;;;;;6.07;1.80;;;;;;;;;;5074889;28;20044;-71
2022/09/12 10:08:25;;;;;;;2.75;1.60;;;;;;;;;;5075335;28;20045;-72
2022/09/12 10:10:54;;;;;;;5.47;1.63;;;;;;;;;;5072534;28;20128;-72
2022/09/12 10:13:38;;;;;;;2.35;1.55;;;;;;;;;;5073279;28;20040;-71
2022/09/12 10:16:06;;;;;;;2.40;1.63;;;;;;;;;;5071621;28;20224;-71
2022/09/12 10:18:33;;;;;;;3.55;1.90;;;;;;;;;;5073849;28;20164;-71
2022/09/12 10:21:00;;;;;;;5.63;2.20;;;;;;;;;;5073169;28;20044;-71
2022/09/12 10:23:36;;;;;;;2.55;1.40;;;;;;;;;;5072344;28;20044;-71
2022/09/12 10:26:04;;;;;;;2.70;1.35;;;;;;;;;;5075079;28;20037;-71
2022/09/12 10:28:50;;;;;;;5.80;2.47;;;;;;;;;;5094184;28;20124;-71
2022/09/12 10:31:27;;;;;;;2.95;1.52;;;;;;;;;;5075442;28;20044;-72
2022/09/12 10:33:55;;;;;;;4.63;1.23;;;;;;;;;;5076336;28;20041;-71
2022/09/12 10:36:22;;;;;;;3.42;1.63;;;;;;;;;;5070107;28;20048;-71
2022/09/12 10:38:53;;;;;;;2.22;1.27;;;;;;;;;;5076757;28;20641;-71
2022/09/12 10:41:20;;;;;;;6.00;2.40;;;;;;;;;;5076369;28;20040;-71
2022/09/12 10:43:46;;;;;;;2.38;1.85;;;;;;;;;;5076930;28;20115;-71
2022/09/12 10:46:16;;;;;;;3.75;1.92;;;;;;;;;;5076135;28;20534;-71
2022/09/12 10:48:42;;;;;;;2.97;1.23;;;;;;;;;;5077844;28;20049;-71
2022/09/12 10:51:23;;;;;;;2.83;1.95;;;;;;;;;;5076931;28;20044;-72
2022/09/12 10:54:01;;;;;;;2.38;1.23;;;;;;;;;;5077050;28;20292;-71
2022/09/12 10:56:31;;;;;;;2.78;1.60;;;;;;;;;;5075701;28;20048;-72
2022/09/12 10:59:06;;;;;;;2.05;1.13;;;;;;;;;;5075014;28;20555;-71
2022/09/12 11:01:32;;;;;;;1.85;0.98;;;;;;;;;;5068884;28;20052;-71
2022/09/12 11:04:02;;;;;;;1.77;1.30;;;;;;;;;;5074493;28;20040;-71
2022/09/12 11:06:34;;;;;;;2.25;1.20;;;;;;;;;;5076752;28;20908;-72
2022/09/12 11:09:05;;;;;;;1.95;1.27;;;;;;;;;;5077788;28;20045;-70
2022/09/12 11:11:36;;;;;;;3.53;1.90;;;;;;;;;;5076340;28;20052;-71
2022/09/12 11:14:20;;;;;;;1.90;1.10;;;;;;;;;;5075037;28;20559;-71
2022/09/12 11:16:53;;;;;;;1.55;0.82;;;;;;;;;;5076709;28;20094;-71
2022/09/12 11:19:22;;;;;;;4.53;1.00;;;;;;;;;;5051249;28;20036;-71
2022/09/12 11:21:48;;;;;;;3.80;1.27;;;;;;;;;;5074985;28;20056;-71
2022/09/12 11:24:15;;;;;;;2.38;1.00;;;;;;;;;;5069573;28;20040;-71
2022/09/12 11:26:59;;;;;;;3.47;1.35;;;;;;;;;;5076644;28;20922;-71
2022/09/12 11:29:26;;;;;;;1.45;0.90;;;;;;;;;;5092515;28;20579;-71
2022/09/12 11:32:01;;;;;;;2.83;1.50;;;;;;;;;;5073966;28;20586;-71
2022/09/12 11:34:35;;;;;;;2.17;1.13;;;;;;;;;;5058589;28;20090;-71
2022/09/12 11:37:08;;;;;;;1.10;1.00;;;;;;;;;;5073795;28;20049;-71
2022/09/12 11:39:41;;;;;;;1.58;1.17;;;;;;;;;;5077042;28;20533;-71
2022/09/12 11:42:12;;;;;;;1.92;1.58;;;;;;;;;;5074499;28;20140;-71
2022/09/12 11:44:47;;;;;;;1.70;1.05;;;;;;;;;;5074811;28;20598;-71
2022/09/12 11:47:13;;;;;;;6.25;1.13;;;;;;;;;;5074907;28;20606;-71
2022/09/12 11:49:46;;;;;;;0.68;0.65;;;;;;;;;;5076201;28;20431;-71
2022/09/12 11:52:18;;;;;;;1.73;1.20;;;;;;;;;;5075489;28;20044;-71
2022/09/12 11:55:02;;;;;;;4.30;1.38;;;;;;;;;;5074951;28;20497;-71
2022/09/12 11:57:35;;;;;;;2.30;1.20;;;;;;;;;;5074889;28;20172;-72
2022/09/12 12:00:15;;;;;;;1.27;0.98;;;;;;;;;;5078148;28;20098;-71
2022/09/12 12:02:58;;;;;;;1.35;1.25;;;;;;;;;;5074540;28;20571;-71
2022/09/12 12:05:27;;;;;;;2.42;1.27;;;;;;;;;;5078117;28;20070;-72
2022/09/12 12:07:55;;;;;;;2.53;1.42;;;;;;;;;;5069759;28;20068;-71
2022/09/12 12:10:23;;;;;;;2.50;0.95;;;;;;;;;;5075200;28;20040;-71
2022/09/12 12:12:51;;;;;;;4.05;1.40;;;;;;;;;;5073578;28;20037;-71
2022/09/12 12:15:17;;;;;;;1.10;0.98;;;;;;;;;;5092825;28;20457;-73
2022/09/12 12:17:44;;;;;;;4.00;1.30;;;;;;;;;;5067955;28;20118;-71
2022/09/12 12:20:16;;;;;;;2.67;1.60;;;;;;;;;;5075540;28;20045;-71
2022/09/12 12:22:55;;;;;;;1.45;1.00;;;;;;;;;;5074767;28;20041;-72
2022/09/12 12:25:23;;;;;;;1.92;1.00;;;;;;;;;;5075058;28;20138;-71
2022/09/12 12:27:52;;;;;;;1.20;0.95;;;;;;;;;;5074299;28;20045;-71
2022/09/12 12:30:32;;;;;;;3.65;1.15;;;;;;;;;;5075617;28;20112;-71
2022/09/12 12:33:01;;;;;;;0.98;0.75;;;;;;;;;;5077416;28;20102;-71
2022/09/12 12:35:50;;;;;;;1.25;0.77;;;;;;;;;;5075202;28;20041;-71
2022/09/12 12:38:32;;;;;;;2.58;0.98;;;;;;;;;;5049797;28;20080;-72
2022/09/12 12:41:16;;;;;;;2.03;0.65;;;;;;;;;;5075271;28;20183;-71
2022/09/12 12:43:46;;;;;;;3.60;1.00;;;;;;;;;;5075231;28;20123;-71
2022/09/12 12:46:21;;;;;;;1.48;1.05;;;;;;;;;;5075972;28;21238;-71
2022/09/12 12:48:56;;;;;;;0.80;0.77;;;;;;;;;;5075630;28;20209;-71
2022/09/12 12:51:29;;;;;;;2.28;1.17;;;;;;;;;;5073286;28;20122;-71
2022/09/12 12:53:55;;;;;;;5.07;1.55;;;;;;;;;;5077157;28;20047;-71
2022/09/12 12:56:27;;;;;;;1.83;1.00;;;;;;;;;;5073410;28;20592;-71
2022/09/12 12:58:59;;;;;;;4.00;1.13;;;;;;;;;;5074512;28;20040;-71
2022/09/12 13:01:25;;;;;;;;;;;;;;;;;;5068638;28;20040;-71
2022/09/12 13:03:56;;;;;;;6.40;1.55;;;;;;;;;;5073830;28;19920;-71
2022/09/12 13:06:31;;;;;;;2.33;1.20;;;;;;;;;;5075651;28;20080;-71
2022/09/12 13:09:03;;;;;;;3.80;0.93;;;;;;;;;;5075475;28;20044;-71
2022/09/12 13:11:34;;;;;;;4.47;0.70;;;;;;;;;;5076208;28;20108;-71
2022/09/12 13:14:04;;;;;;;2.50;0.80;;;;;;;;;;5074655;28;20033;-70
2022/09/12 13:16:37;;;;;;;3.17;1.95;;;;;;;;;;5074819;28;20048;-70
2022/09/12 13:19:06;;;;;;;0.90;0.73;;;;;;;;;;5058398;28;20044;-71
2022/09/12 13:21:32;;;;;;;1.15;0.70;;;;;;;;;;5072966;28;20060;-71
2022/09/12 13:24:02;;;;;;;1.40;0.80;;;;;;;;;;5074108;28;20095;-71
2022/09/12 13:26:33;;;;;;;4.47;1.10;;;;;;;;;;5073546;28;20040;-71
2022/09/12 13:29:09;;;;;;;1.53;1.10;;;;;;;;;;5074641;28;20063;-71
2022/09/12 13:31:35;;;;;;;2.97;1.40;;;;;;;;;;5072919;28;20309;-71
2022/09/12 13:34:04;;;;;;;2.15;0.88;;;;;;;;;;5074081;28;20128;-71
2022/09/12 13:36:56;;;;;;;1.85;1.20;;;;;;;;;;5067625;28;20045;-71
2022/09/12 13:39:34;;;;;;;2.63;1.10;;;;;;;;;;5054727;28;20056;-71
2022/09/12 13:42:19;;;;;;;2.50;1.15;;;;;;;;;;5074929;28;20123;-71
2022/09/12 13:44:57;;;;;;;2.80;1.00;;;;;;;;;;5074601;28;20037;-72
2022/09/12 13:47:29;;;;;;;1.45;0.90;;;;;;;;;;5073894;28;20552;-71
2022/09/12 13:49:55;;;;;;;;;;;;;;;;;;5073752;28;20061;-71
2022/09/12 13:52:24;;;;;;;2.28;1.40;;;;;;;;;;5073126;28;20441;-71
2022/09/12 13:54:53;;;;;;;1.27;0.85;;;;;;;;;;5075163;28;20121;-72
2022/09/12 13:57:29;;;;;;;1.42;0.93;;;;;;;;;;5074602;28;20037;-71
2022/09/12 13:59:56;;;;;;;2.72;1.00;;;;;;;;;;5076093;28;20044;-71
2022/09/12 14:02:24;;;;;;;6.78;1.17;;;;;;;;;;5076103;28;20103;-71
2022/09/12 14:05:10;;;;;;;1.42;0.90;;;;;;;;;;5077478;28;20044;-71
2022/09/12 14:07:43;;;;;;;3.92;1.10;;;;;;;;;;5076822;28;20588;-71
2022/09/12 14:10:15;;;;;;;1.58;0.90;;;;;;;;;;5077978;28;20072;-71
2022/09/12 14:12:42;;;;;;;1.35;1.25;;;;;;;;;;5076602;28;20051;-70
2022/09/12 14:15:26;;;;;;;4.03;1.02;;;;;;;;;;5079852;28;20167;-71
2022/09/12 14:17:53;;;;;;;2.85;0.95;;;;;;;;;;5076836;28;20051;-71
2022/09/12 14:20:21;;;;;;;2.05;1.00;;;;;;;;;;5075421;28;20534;-71
2022/09/12 14:22:47;;;;;;;1.13;0.85;;;;;;;;;;5078843;28;20199;-72
2022/09/12 14:25:18;;;;;;;3.63;1.00;;;;;;;;;;5078741;28;20041;-71
2022/09/12 14:27:53;;;;;;;2.33;0.82;;;;;;;;;;5078110;28;20517;-70
2022/09/12 14:30:29;;;;;;;2.45;0.90;;;;;;;;;;5060611;28;20052;-71
2022/09/12 14:33:02;;;;;;;2.97;0.98;;;;;;;;;;5076724;28;20657;-71
2022/09/12 14:35:28;;;;;;;3.70;1.25;;;;;;;;;;5075995;28;20124;-71
2022/09/12 14:37:54;;;;;;;1.48;0.85;;;;;;;;;;5078249;28;20142;-70
2022/09/12 14:40:22;;;;;;;1.40;0.75;;;;;;;;;;5074818;28;20047;-70
2022/09/12 14:42:51;;;;;;;1.70;1.00;;;;;;;;;;5075839;28;20148;-71
2022/09/12 14:45:23;;;;;;;1.15;0.70;;;;;;;;;;5077971;28;20189;-71
2022/09/12 14:47:49;;;;;;;;;;;;;;;;;;5076435;28;20055;-71
2022/09/12 14:50:22;;;;;;;1.63;0.82;;;;;;;;;;5077546;28;19916;-71
2022/09/12 14:53:07;;;;;;;1.13;0.60;;;;;;;;;;5075575;28;20040;-71
2022/09/12 14:55:34;;;;;;;2.10;1.13;;;;;;;;;;5075479;28;20509;-71
2022/09/12 14:58:27;;;;;;;1.25;0.90;;;;;;;;;;5079340;28;20043;-71
2022/09/12 15:01:21;;;;;;;1.65;1.10;;;;;;;;;;5055859;28;20045;-71